sensor_id;sensor_type;location;lat;lon;timestamp;P1;durP1;ratioP1;P2;durP2;ratioP2
12267;SDS011;6196;48.398;11.736;2022-12-10T00:01:34;25.53;;;19.10;;
12267;SDS011;6196;48.398;11.736;2022-12-10T00:04:02;26.00;;;19.07;;
12267;SDS011;6196;48.398;11.736;2022-12-10T00:06:31;25.47;;;17.87;;
12267;SDS011;6196;48.398;11.736;2022-12-10T00:09:00;26.97;;;18.93;;
12267;SDS011;6196;48.398;11.736;2022-12-10T00:11:29;27.77;;;19.50;;
12267;SDS011;6196;48.398;11.736;2022-12-10T00:13:57;26.03;;;18.87;;
12267;SDS011;6196;48.398;11.736;2022-12-10T00:16:26;24.63;;;18.43;;
12267;SDS011;6196;48.398;11.736;2022-12-10T00:18:54;23.47;;;17.30;;
12267;SDS011;6196;48.398;11.736;2022-12-10T00:21:23;26.93;;;18.50;;
12267;SDS011;6196;48.398;11.736;2022-12-10T00:23:54;24.23;;;17.70;;
12267;SDS011;6196;48.398;11.736;2022-12-10T00:26:22;24.13;;;18.63;;
12267;SDS011;6196;48.398;11.736;2022-12-10T00:28:52;28.60;;;19.33;;
12267;SDS011;6196;48.398;11.736;2022-12-10T00:31:24;25.40;;;19.03;;
12267;SDS011;6196;48.398;11.736;2022-12-10T00:33:55;25.50;;;18.47;;
12267;SDS011;6196;48.398;11.736;2022-12-10T00:36:25;25.67;;;18.90;;
12267;SDS011;6196;48.398;11.736;2022-12-10T00:39:04;25.90;;;18.50;;
12267;SDS011;6196;48.398;11.736;2022-12-10T00:41:32;27.30;;;17.97;;
12267;SDS011;6196;48.398;11.736;2022-12-10T00:43:59;24.93;;;18.33;;
12267;SDS011;6196;48.398;11.736;2022-12-10T00:46:26;27.13;;;19.30;;
12267;SDS011;6196;48.398;11.736;2022-12-10T00:48:53;23.53;;;17.73;;
12267;SDS011;6196;48.398;11.736;2022-12-10T00:51:21;27.20;;;19.40;;
12267;SDS011;6196;48.398;11.736;2022-12-10T00:53:51;25.07;;;18.20;;
12267;SDS011;6196;48.398;11.736;2022-12-10T00:56:21;26.37;;;18.07;;
12267;SDS011;6196;48.398;11.736;2022-12-10T00:58:52;25.30;;;18.63;;
12267;SDS011;6196;48.398;11.736;2022-12-10T01:01:21;25.67;;;19.03;;
12267;SDS011;6196;48.398;11.736;2022-12-10T01:03:54;23.40;;;17.80;;
12267;SDS011;6196;48.398;11.736;2022-12-10T01:06:31;25.43;;;17.50;;
12267;SDS011;6196;48.398;11.736;2022-12-10T01:09:06;25.70;;;18.93;;
12267;SDS011;6196;48.398;11.736;2022-12-10T01:11:37;25.53;;;18.90;;
12267;SDS011;6196;48.398;11.736;2022-12-10T01:14:07;24.47;;;18.67;;
12267;SDS011;6196;48.398;11.736;2022-12-10T01:16:38;24.77;;;17.63;;
12267;SDS011;6196;48.398;11.736;2022-12-10T01:19:05;26.27;;;18.27;;
12267;SDS011;6196;48.398;11.736;2022-12-10T01:21:32;25.40;;;18.60;;
12267;SDS011;6196;48.398;11.736;2022-12-10T01:23:59;26.47;;;18.60;;
12267;SDS011;6196;48.398;11.736;2022-12-10T01:26:27;26.83;;;18.60;;
12267;SDS011;6196;48.398;11.736;2022-12-10T01:28:58;24.53;;;18.90;;
12267;SDS011;6196;48.398;11.736;2022-12-10T01:31:27;25.07;;;19.43;;
12267;SDS011;6196;48.398;11.736;2022-12-10T01:33:57;27.10;;;19.03;;
12267;SDS011;6196;48.398;11.736;2022-12-10T01:36:29;24.70;;;18.10;;
12267;SDS011;6196;48.398;11.736;2022-12-10T01:39:00;27.73;;;18.83;;
12267;SDS011;6196;48.398;11.736;2022-12-10T01:41:33;25.93;;;18.30;;
12267;SDS011;6196;48.398;11.736;2022-12-10T01:46:37;23.60;;;17.57;;
12267;SDS011;6196;48.398;11.736;2022-12-10T01:49:11;25.30;;;17.73;;
12267;SDS011;6196;48.398;11.736;2022-12-10T01:51:45;25.83;;;18.30;;
12267;SDS011;6196;48.398;11.736;2022-12-10T01:54:32;23.27;;;17.67;;
12267;SDS011;6196;48.398;11.736;2022-12-10T01:57:21;24.30;;;19.07;;
12267;SDS011;6196;48.398;11.736;2022-12-10T01:59:52;23.57;;;17.03;;
12267;SDS011;6196;48.398;11.736;2022-12-10T02:05:32;24.97;;;17.50;;
12267;SDS011;6196;48.398;11.736;2022-12-10T02:08:17;24.07;;;17.20;;
12267;SDS011;6196;48.398;11.736;2022-12-10T02:14:41;22.77;;;16.50;;
12267;SDS011;6196;48.398;11.736;2022-12-10T02:20:29;23.63;;;17.00;;
12267;SDS011;6196;48.398;11.736;2022-12-10T02:23:18;28.90;;;18.67;;
12267;SDS011;6196;48.398;11.736;2022-12-10T02:25:59;24.70;;;18.07;;
12267;SDS011;6196;48.398;11.736;2022-12-10T02:31:40;24.43;;;17.27;;
12267;SDS011;6196;48.398;11.736;2022-12-10T02:34:12;25.20;;;17.57;;
12267;SDS011;6196;48.398;11.736;2022-12-10T02:36:42;24.93;;;17.93;;
12267;SDS011;6196;48.398;11.736;2022-12-10T02:39:13;24.37;;;17.73;;
12267;SDS011;6196;48.398;11.736;2022-12-10T02:41:47;23.17;;;17.50;;
12267;SDS011;6196;48.398;11.736;2022-12-10T02:44:18;23.27;;;17.20;;
12267;SDS011;6196;48.398;11.736;2022-12-10T02:46:47;24.13;;;17.57;;
12267;SDS011;6196;48.398;11.736;2022-12-10T02:49:18;25.50;;;17.17;;
12267;SDS011;6196;48.398;11.736;2022-12-10T02:51:46;25.03;;;18.07;;
12267;SDS011;6196;48.398;11.736;2022-12-10T02:54:33;22.43;;;17.17;;
12267;SDS011;6196;48.398;11.736;2022-12-10T03:00:18;24.30;;;18.13;;
12267;SDS011;6196;48.398;11.736;2022-12-10T03:05:35;26.13;;;17.63;;
12267;SDS011;6196;48.398;11.736;2022-12-10T03:13:43;25.83;;;18.40;;
12267;SDS011;6196;48.398;11.736;2022-12-10T03:16:22;29.13;;;19.47;;
12267;SDS011;6196;48.398;11.736;2022-12-10T03:18:52;28.03;;;18.70;;
12267;SDS011;6196;48.398;11.736;2022-12-10T03:21:24;24.80;;;18.30;;
12267;SDS011;6196;48.398;11.736;2022-12-10T03:23:52;24.03;;;17.43;;
12267;SDS011;6196;48.398;11.736;2022-12-10T03:26:19;27.93;;;18.33;;
12267;SDS011;6196;48.398;11.736;2022-12-10T03:28:52;25.57;;;17.93;;
12267;SDS011;6196;48.398;11.736;2022-12-10T03:31:26;24.57;;;17.57;;
12267;SDS011;6196;48.398;11.736;2022-12-10T03:33:55;23.53;;;18.63;;
12267;SDS011;6196;48.398;11.736;2022-12-10T03:36:22;26.43;;;19.10;;
12267;SDS011;6196;48.398;11.736;2022-12-10T03:38:51;26.83;;;19.33;;
12267;SDS011;6196;48.398;11.736;2022-12-10T03:41:19;26.67;;;18.20;;
12267;SDS011;6196;48.398;11.736;2022-12-10T03:43:50;28.23;;;19.13;;
12267;SDS011;6196;48.398;11.736;2022-12-10T03:46:22;24.33;;;17.53;;
12267;SDS011;6196;48.398;11.736;2022-12-10T03:48:52;25.87;;;17.73;;
12267;SDS011;6196;48.398;11.736;2022-12-10T03:51:19;25.07;;;18.40;;
12267;SDS011;6196;48.398;11.736;2022-12-10T03:53:47;27.03;;;19.70;;
12267;SDS011;6196;48.398;11.736;2022-12-10T03:56:16;30.57;;;21.23;;
12267;SDS011;6196;48.398;11.736;2022-12-10T03:58:43;27.40;;;19.67;;
12267;SDS011;6196;48.398;11.736;2022-12-10T04:01:10;27.60;;;19.90;;
12267;SDS011;6196;48.398;11.736;2022-12-10T04:03:38;26.57;;;19.10;;
12267;SDS011;6196;48.398;11.736;2022-12-10T04:06:07;28.33;;;20.17;;
12267;SDS011;6196;48.398;11.736;2022-12-10T04:08:38;27.57;;;19.27;;
12267;SDS011;6196;48.398;11.736;2022-12-10T04:11:05;29.03;;;20.57;;
12267;SDS011;6196;48.398;11.736;2022-12-10T04:13:35;25.83;;;19.13;;
12267;SDS011;6196;48.398;11.736;2022-12-10T04:16:23;30.90;;;20.50;;
12267;SDS011;6196;48.398;11.736;2022-12-10T04:18:54;24.97;;;18.77;;
12267;SDS011;6196;48.398;11.736;2022-12-10T04:21:30;26.73;;;18.80;;
12267;SDS011;6196;48.398;11.736;2022-12-10T04:24:18;25.60;;;18.87;;
12267;SDS011;6196;48.398;11.736;2022-12-10T04:27:08;29.03;;;20.30;;
12267;SDS011;6196;48.398;11.736;2022-12-10T04:29:45;26.43;;;19.00;;
12267;SDS011;6196;48.398;11.736;2022-12-10T04:32:12;28.47;;;19.77;;
12267;SDS011;6196;48.398;11.736;2022-12-10T04:34:39;29.67;;;20.70;;
12267;SDS011;6196;48.398;11.736;2022-12-10T04:37:06;30.57;;;20.90;;
12267;SDS011;6196;48.398;11.736;2022-12-10T04:39:33;29.77;;;20.77;;
12267;SDS011;6196;48.398;11.736;2022-12-10T04:42:00;32.07;;;21.10;;
12267;SDS011;6196;48.398;11.736;2022-12-10T04:44:28;29.27;;;20.60;;
12267;SDS011;6196;48.398;11.736;2022-12-10T04:46:54;30.87;;;20.63;;
12267;SDS011;6196;48.398;11.736;2022-12-10T04:49:22;31.93;;;20.70;;
12267;SDS011;6196;48.398;11.736;2022-12-10T04:51:49;28.70;;;20.37;;
12267;SDS011;6196;48.398;11.736;2022-12-10T04:54:16;29.53;;;19.93;;
12267;SDS011;6196;48.398;11.736;2022-12-10T04:56:43;28.73;;;20.97;;
12267;SDS011;6196;48.398;11.736;2022-12-10T04:59:10;31.03;;;20.67;;
12267;SDS011;6196;48.398;11.736;2022-12-10T05:01:38;31.90;;;20.77;;
12267;SDS011;6196;48.398;11.736;2022-12-10T05:04:06;30.43;;;20.03;;
12267;SDS011;6196;48.398;11.736;2022-12-10T05:06:36;31.67;;;19.77;;
12267;SDS011;6196;48.398;11.736;2022-12-10T05:09:03;29.57;;;20.63;;
12267;SDS011;6196;48.398;11.736;2022-12-10T05:11:31;31.77;;;21.37;;
12267;SDS011;6196;48.398;11.736;2022-12-10T05:13:59;30.17;;;20.73;;
12267;SDS011;6196;48.398;11.736;2022-12-10T05:16:27;30.50;;;20.93;;
12267;SDS011;6196;48.398;11.736;2022-12-10T05:18:57;27.97;;;19.00;;
12267;SDS011;6196;48.398;11.736;2022-12-10T05:21:25;30.80;;;21.03;;
12267;SDS011;6196;48.398;11.736;2022-12-10T05:24:13;29.07;;;19.70;;
12267;SDS011;6196;48.398;11.736;2022-12-10T05:26:40;26.67;;;20.07;;
12267;SDS011;6196;48.398;11.736;2022-12-10T05:29:07;33.07;;;21.00;;
12267;SDS011;6196;48.398;11.736;2022-12-10T05:31:35;27.60;;;19.30;;
12267;SDS011;6196;48.398;11.736;2022-12-10T05:34:02;27.97;;;19.70;;
12267;SDS011;6196;48.398;11.736;2022-12-10T05:36:30;28.40;;;19.53;;
12267;SDS011;6196;48.398;11.736;2022-12-10T05:38:58;28.27;;;19.13;;
12267;SDS011;6196;48.398;11.736;2022-12-10T05:41:26;29.47;;;20.37;;
12267;SDS011;6196;48.398;11.736;2022-12-10T05:43:56;31.27;;;21.03;;
12267;SDS011;6196;48.398;11.736;2022-12-10T05:46:28;32.60;;;21.30;;
12267;SDS011;6196;48.398;11.736;2022-12-10T05:48:58;26.87;;;19.37;;
12267;SDS011;6196;48.398;11.736;2022-12-10T05:51:31;26.50;;;19.13;;
12267;SDS011;6196;48.398;11.736;2022-12-10T05:54:00;27.73;;;19.67;;
12267;SDS011;6196;48.398;11.736;2022-12-10T05:56:29;31.00;;;20.43;;
12267;SDS011;6196;48.398;11.736;2022-12-10T05:58:59;27.90;;;19.07;;
12267;SDS011;6196;48.398;11.736;2022-12-10T06:01:29;28.47;;;20.13;;
12267;SDS011;6196;48.398;11.736;2022-12-10T06:04:02;30.17;;;19.43;;
12267;SDS011;6196;48.398;11.736;2022-12-10T06:06:35;29.53;;;19.53;;
12267;SDS011;6196;48.398;11.736;2022-12-10T06:09:05;29.63;;;21.20;;
12267;SDS011;6196;48.398;11.736;2022-12-10T06:11:35;29.83;;;19.83;;
12267;SDS011;6196;48.398;11.736;2022-12-10T06:14:02;30.53;;;19.97;;
12267;SDS011;6196;48.398;11.736;2022-12-10T06:16:29;28.60;;;20.50;;
12267;SDS011;6196;48.398;11.736;2022-12-10T06:18:57;29.77;;;19.13;;
12267;SDS011;6196;48.398;11.736;2022-12-10T06:21:24;30.33;;;20.23;;
12267;SDS011;6196;48.398;11.736;2022-12-10T06:23:51;28.20;;;20.37;;
12267;SDS011;6196;48.398;11.736;2022-12-10T06:26:23;28.67;;;19.90;;
12267;SDS011;6196;48.398;11.736;2022-12-10T06:28:52;28.77;;;19.57;;
12267;SDS011;6196;48.398;11.736;2022-12-10T06:31:20;28.17;;;19.80;;
12267;SDS011;6196;48.398;11.736;2022-12-10T06:33:48;29.30;;;20.17;;
12267;SDS011;6196;48.398;11.736;2022-12-10T06:36:16;29.33;;;20.40;;
12267;SDS011;6196;48.398;11.736;2022-12-10T06:38:44;30.43;;;21.17;;
12267;SDS011;6196;48.398;11.736;2022-12-10T06:41:12;27.80;;;19.80;;
12267;SDS011;6196;48.398;11.736;2022-12-10T06:43:41;30.13;;;21.33;;
12267;SDS011;6196;48.398;11.736;2022-12-10T06:46:09;33.80;;;21.00;;
12267;SDS011;6196;48.398;11.736;2022-12-10T06:48:39;29.03;;;19.50;;
12267;SDS011;6196;48.398;11.736;2022-12-10T06:51:07;31.83;;;20.30;;
12267;SDS011;6196;48.398;11.736;2022-12-10T06:53:35;31.40;;;20.83;;
12267;SDS011;6196;48.398;11.736;2022-12-10T06:56:04;30.70;;;20.73;;
12267;SDS011;6196;48.398;11.736;2022-12-10T06:58:32;30.83;;;21.57;;
12267;SDS011;6196;48.398;11.736;2022-12-10T07:01:05;34.50;;;21.17;;
12267;SDS011;6196;48.398;11.736;2022-12-10T07:03:37;28.30;;;19.50;;
12267;SDS011;6196;48.398;11.736;2022-12-10T07:06:05;30.03;;;20.70;;
12267;SDS011;6196;48.398;11.736;2022-12-10T07:08:34;27.17;;;19.40;;
12267;SDS011;6196;48.398;11.736;2022-12-10T07:11:03;30.17;;;19.57;;
12267;SDS011;6196;48.398;11.736;2022-12-10T07:13:31;28.33;;;20.03;;
12267;SDS011;6196;48.398;11.736;2022-12-10T07:15:59;32.33;;;21.80;;
12267;SDS011;6196;48.398;11.736;2022-12-10T07:18:26;33.43;;;22.00;;
12267;SDS011;6196;48.398;11.736;2022-12-10T07:20:53;32.60;;;21.10;;
12267;SDS011;6196;48.398;11.736;2022-12-10T07:23:20;30.53;;;20.80;;
12267;SDS011;6196;48.398;11.736;2022-12-10T07:25:48;32.70;;;21.47;;
12267;SDS011;6196;48.398;11.736;2022-12-10T07:28:15;31.10;;;20.20;;
12267;SDS011;6196;48.398;11.736;2022-12-10T07:30:42;33.00;;;21.27;;
12267;SDS011;6196;48.398;11.736;2022-12-10T07:33:09;31.40;;;20.57;;
12267;SDS011;6196;48.398;11.736;2022-12-10T07:35:37;30.60;;;20.90;;
12267;SDS011;6196;48.398;11.736;2022-12-10T07:38:13;33.07;;;19.97;;
12267;SDS011;6196;48.398;11.736;2022-12-10T07:40:40;34.20;;;21.90;;
12267;SDS011;6196;48.398;11.736;2022-12-10T07:43:07;30.03;;;20.37;;
12267;SDS011;6196;48.398;11.736;2022-12-10T07:45:34;30.63;;;20.83;;
12267;SDS011;6196;48.398;11.736;2022-12-10T07:48:01;34.10;;;22.13;;
12267;SDS011;6196;48.398;11.736;2022-12-10T07:50:28;32.97;;;20.37;;
12267;SDS011;6196;48.398;11.736;2022-12-10T07:52:55;31.40;;;21.20;;
12267;SDS011;6196;48.398;11.736;2022-12-10T07:55:22;32.93;;;21.80;;
12267;SDS011;6196;48.398;11.736;2022-12-10T07:57:49;30.60;;;20.57;;
12267;SDS011;6196;48.398;11.736;2022-12-10T08:00:15;32.53;;;20.80;;
12267;SDS011;6196;48.398;11.736;2022-12-10T08:02:43;32.40;;;21.90;;
12267;SDS011;6196;48.398;11.736;2022-12-10T08:05:10;28.40;;;20.00;;
12267;SDS011;6196;48.398;11.736;2022-12-10T08:07:37;31.93;;;21.50;;
12267;SDS011;6196;48.398;11.736;2022-12-10T08:10:04;32.73;;;21.43;;
12267;SDS011;6196;48.398;11.736;2022-12-10T08:12:31;36.30;;;22.27;;
12267;SDS011;6196;48.398;11.736;2022-12-10T08:14:58;34.00;;;21.53;;
12267;SDS011;6196;48.398;11.736;2022-12-10T08:17:25;33.23;;;21.63;;
12267;SDS011;6196;48.398;11.736;2022-12-10T08:19:52;32.77;;;22.03;;
12267;SDS011;6196;48.398;11.736;2022-12-10T08:22:21;35.93;;;22.47;;
12267;SDS011;6196;48.398;11.736;2022-12-10T08:24:48;32.20;;;21.20;;
12267;SDS011;6196;48.398;11.736;2022-12-10T08:27:15;31.33;;;21.43;;
12267;SDS011;6196;48.398;11.736;2022-12-10T08:29:41;39.23;;;23.07;;
12267;SDS011;6196;48.398;11.736;2022-12-10T08:32:08;37.23;;;22.50;;
12267;SDS011;6196;48.398;11.736;2022-12-10T08:34:35;32.73;;;22.57;;
12267;SDS011;6196;48.398;11.736;2022-12-10T08:37:02;36.90;;;21.67;;
12267;SDS011;6196;48.398;11.736;2022-12-10T08:39:37;34.23;;;22.23;;
12267;SDS011;6196;48.398;11.736;2022-12-10T08:42:04;33.07;;;21.63;;
12267;SDS011;6196;48.398;11.736;2022-12-10T08:44:30;34.33;;;21.53;;
12267;SDS011;6196;48.398;11.736;2022-12-10T08:46:57;31.97;;;20.93;;
12267;SDS011;6196;48.398;11.736;2022-12-10T08:49:24;34.53;;;22.40;;
12267;SDS011;6196;48.398;11.736;2022-12-10T08:51:51;33.30;;;21.20;;
12267;SDS011;6196;48.398;11.736;2022-12-10T08:54:18;33.20;;;21.83;;
12267;SDS011;6196;48.398;11.736;2022-12-10T08:56:45;34.30;;;21.63;;
12267;SDS011;6196;48.398;11.736;2022-12-10T08:59:12;32.70;;;20.83;;
12267;SDS011;6196;48.398;11.736;2022-12-10T09:01:39;32.87;;;21.67;;
12267;SDS011;6196;48.398;11.736;2022-12-10T09:04:06;37.27;;;22.40;;
12267;SDS011;6196;48.398;11.736;2022-12-10T09:06:33;33.33;;;22.30;;
12267;SDS011;6196;48.398;11.736;2022-12-10T09:09:00;32.40;;;21.73;;
12267;SDS011;6196;48.398;11.736;2022-12-10T09:11:29;35.03;;;22.53;;
12267;SDS011;6196;48.398;11.736;2022-12-10T09:13:59;31.40;;;21.23;;
12267;SDS011;6196;48.398;11.736;2022-12-10T09:16:30;35.20;;;21.90;;
12267;SDS011;6196;48.398;11.736;2022-12-10T09:18:59;35.40;;;21.90;;
12267;SDS011;6196;48.398;11.736;2022-12-10T09:21:27;32.53;;;21.67;;
12267;SDS011;6196;48.398;11.736;2022-12-10T09:23:57;32.83;;;21.53;;
12267;SDS011;6196;48.398;11.736;2022-12-10T09:26:25;31.80;;;21.03;;
12267;SDS011;6196;48.398;11.736;2022-12-10T09:28:52;31.60;;;20.47;;
12267;SDS011;6196;48.398;11.736;2022-12-10T09:31:20;33.93;;;20.90;;
12267;SDS011;6196;48.398;11.736;2022-12-10T09:33:48;30.30;;;19.93;;
12267;SDS011;6196;48.398;11.736;2022-12-10T09:36:18;34.77;;;21.33;;
12267;SDS011;6196;48.398;11.736;2022-12-10T09:38:46;32.27;;;20.60;;
12267;SDS011;6196;48.398;11.736;2022-12-10T09:43:52;36.50;;;21.30;;
12267;SDS011;6196;48.398;11.736;2022-12-10T09:46:56;32.43;;;20.47;;
12267;SDS011;6196;48.398;11.736;2022-12-10T09:52:39;29.93;;;20.23;;
12267;SDS011;6196;48.398;11.736;2022-12-10T09:55:11;32.60;;;21.17;;
12267;SDS011;6196;48.398;11.736;2022-12-10T09:57:43;31.47;;;19.80;;
12267;SDS011;6196;48.398;11.736;2022-12-10T10:02:52;33.00;;;21.10;;
12267;SDS011;6196;48.398;11.736;2022-12-10T10:05:29;35.70;;;21.67;;
12267;SDS011;6196;48.398;11.736;2022-12-10T10:08:13;37.70;;;22.50;;
12267;SDS011;6196;48.398;11.736;2022-12-10T10:11:00;37.00;;;23.33;;
12267;SDS011;6196;48.398;11.736;2022-12-10T10:19:31;33.13;;;20.87;;
12267;SDS011;6196;48.398;11.736;2022-12-10T10:21:54;34.33;;;22.10;;
12267;SDS011;6196;48.398;11.736;2022-12-10T10:24:42;32.37;;;22.20;;
12267;SDS011;6196;48.398;11.736;2022-12-10T10:27:15;32.53;;;20.33;;
12267;SDS011;6196;48.398;11.736;2022-12-10T10:29:55;35.87;;;22.30;;
12267;SDS011;6196;48.398;11.736;2022-12-10T10:32:26;38.13;;;23.30;;
12267;SDS011;6196;48.398;11.736;2022-12-10T10:35:27;37.80;;;22.63;;
12267;SDS011;6196;48.398;11.736;2022-12-10T10:37:58;35.97;;;23.13;;
12267;SDS011;6196;48.398;11.736;2022-12-10T10:40:41;36.93;;;22.77;;
12267;SDS011;6196;48.398;11.736;2022-12-10T10:43:14;44.00;;;25.57;;
12267;SDS011;6196;48.398;11.736;2022-12-10T10:46:11;38.77;;;24.30;;
12267;SDS011;6196;48.398;11.736;2022-12-10T10:48:41;36.60;;;23.07;;
12267;SDS011;6196;48.398;11.736;2022-12-10T10:51:13;41.10;;;27.67;;
12267;SDS011;6196;48.398;11.736;2022-12-10T10:53:55;37.53;;;24.97;;
12267;SDS011;6196;48.398;11.736;2022-12-10T10:58:53;36.93;;;24.03;;
12267;SDS011;6196;48.398;11.736;2022-12-10T11:01:50;36.40;;;22.83;;
12267;SDS011;6196;48.398;11.736;2022-12-10T11:04:28;43.80;;;26.37;;
12267;SDS011;6196;48.398;11.736;2022-12-10T11:07:04;36.53;;;23.30;;
12267;SDS011;6196;48.398;11.736;2022-12-10T11:09:48;41.23;;;26.60;;
12267;SDS011;6196;48.398;11.736;2022-12-10T11:12:29;38.03;;;24.40;;
12267;SDS011;6196;48.398;11.736;2022-12-10T11:15:01;41.20;;;23.63;;
12267;SDS011;6196;48.398;11.736;2022-12-10T11:17:54;46.50;;;27.47;;
12267;SDS011;6196;48.398;11.736;2022-12-10T11:20:23;50.67;;;28.83;;
12267;SDS011;6196;48.398;11.736;2022-12-10T11:25:38;41.77;;;25.67;;
12267;SDS011;6196;48.398;11.736;2022-12-10T11:39:36;47.50;;;28.07;;
12267;SDS011;6196;48.398;11.736;2022-12-10T11:42:39;48.33;;;27.87;;
12267;SDS011;6196;48.398;11.736;2022-12-10T11:51:03;41.47;;;24.83;;
12267;SDS011;6196;48.398;11.736;2022-12-10T11:53:38;38.57;;;23.83;;
12267;SDS011;6196;48.398;11.736;2022-12-10T11:56:35;38.00;;;24.70;;
12267;SDS011;6196;48.398;11.736;2022-12-10T12:08:49;36.63;;;23.20;;
12267;SDS011;6196;48.398;11.736;2022-12-10T12:11:30;50.70;;;29.53;;
12267;SDS011;6196;48.398;11.736;2022-12-10T12:14:42;42.50;;;26.23;;
12267;SDS011;6196;48.398;11.736;2022-12-10T12:17:25;43.67;;;26.50;;
12267;SDS011;6196;48.398;11.736;2022-12-10T12:19:59;42.10;;;25.40;;
12267;SDS011;6196;48.398;11.736;2022-12-10T12:22:33;65.23;;;31.37;;
12267;SDS011;6196;48.398;11.736;2022-12-10T12:25:16;62.00;;;32.50;;
12267;SDS011;6196;48.398;11.736;2022-12-10T12:28:11;58.30;;;30.60;;
12267;SDS011;6196;48.398;11.736;2022-12-10T12:30:53;48.87;;;29.00;;
12267;SDS011;6196;48.398;11.736;2022-12-10T12:36:19;51.23;;;29.57;;
12267;SDS011;6196;48.398;11.736;2022-12-10T12:41:41;52.97;;;29.23;;
12267;SDS011;6196;48.398;11.736;2022-12-10T12:44:29;46.80;;;26.63;;
12267;SDS011;6196;48.398;11.736;2022-12-10T12:47:19;40.77;;;25.50;;
12267;SDS011;6196;48.398;11.736;2022-12-10T12:49:58;46.43;;;26.60;;
12267;SDS011;6196;48.398;11.736;2022-12-10T12:52:33;49.33;;;27.63;;
12267;SDS011;6196;48.398;11.736;2022-12-10T12:55:19;42.73;;;25.17;;
12267;SDS011;6196;48.398;11.736;2022-12-10T13:04:30;48.63;;;29.17;;
12267;SDS011;6196;48.398;11.736;2022-12-10T13:09:43;47.43;;;29.57;;
12267;SDS011;6196;48.398;11.736;2022-12-10T13:15:03;53.53;;;32.23;;
12267;SDS011;6196;48.398;11.736;2022-12-10T13:20:45;54.97;;;30.47;;
12267;SDS011;6196;48.398;11.736;2022-12-10T13:28:20;53.47;;;31.00;;
12267;SDS011;6196;48.398;11.736;2022-12-10T13:33:52;56.47;;;30.30;;
12267;SDS011;6196;48.398;11.736;2022-12-10T13:36:35;50.10;;;29.20;;
12267;SDS011;6196;48.398;11.736;2022-12-10T13:39:20;55.63;;;30.53;;
12267;SDS011;6196;48.398;11.736;2022-12-10T13:45:01;47.50;;;26.57;;
12267;SDS011;6196;48.398;11.736;2022-12-10T13:47:53;50.13;;;28.93;;
12267;SDS011;6196;48.398;11.736;2022-12-10T13:56:21;43.90;;;26.60;;
12267;SDS011;6196;48.398;11.736;2022-12-10T14:08:04;46.90;;;26.70;;
12267;SDS011;6196;48.398;11.736;2022-12-10T14:10:35;42.83;;;25.90;;
12267;SDS011;6196;48.398;11.736;2022-12-10T14:13:04;41.83;;;25.63;;
12267;SDS011;6196;48.398;11.736;2022-12-10T14:15:31;45.03;;;26.33;;
12267;SDS011;6196;48.398;11.736;2022-12-10T14:18:10;42.57;;;26.53;;
12267;SDS011;6196;48.398;11.736;2022-12-10T14:20:44;47.23;;;31.20;;
12267;SDS011;6196;48.398;11.736;2022-12-10T14:23:22;49.47;;;31.40;;
12267;SDS011;6196;48.398;11.736;2022-12-10T14:26:35;49.00;;;31.67;;
12267;SDS011;6196;48.398;11.736;2022-12-10T14:28:59;48.27;;;28.03;;
12267;SDS011;6196;48.398;11.736;2022-12-10T14:31:29;55.93;;;33.33;;
12267;SDS011;6196;48.398;11.736;2022-12-10T14:34:12;52.77;;;31.30;;
12267;SDS011;6196;48.398;11.736;2022-12-10T14:36:48;49.87;;;30.60;;
12267;SDS011;6196;48.398;11.736;2022-12-10T14:39:26;48.23;;;30.60;;
12267;SDS011;6196;48.398;11.736;2022-12-10T14:41:57;44.70;;;28.10;;
12267;SDS011;6196;48.398;11.736;2022-12-10T14:44:27;48.13;;;28.80;;
12267;SDS011;6196;48.398;11.736;2022-12-10T14:49:45;41.60;;;25.13;;
12267;SDS011;6196;48.398;11.736;2022-12-10T14:52:22;39.93;;;25.17;;
12267;SDS011;6196;48.398;11.736;2022-12-10T14:54:58;44.93;;;28.27;;
12267;SDS011;6196;48.398;11.736;2022-12-10T14:57:30;43.33;;;27.87;;
12267;SDS011;6196;48.398;11.736;2022-12-10T15:00:11;44.33;;;26.17;;
12267;SDS011;6196;48.398;11.736;2022-12-10T15:02:47;42.33;;;27.53;;
12267;SDS011;6196;48.398;11.736;2022-12-10T15:05:21;42.80;;;26.23;;
12267;SDS011;6196;48.398;11.736;2022-12-10T15:08:34;41.40;;;26.30;;
12267;SDS011;6196;48.398;11.736;2022-12-10T15:10:44;36.37;;;24.37;;
12267;SDS011;6196;48.398;11.736;2022-12-10T15:13:29;41.47;;;26.43;;
12267;SDS011;6196;48.398;11.736;2022-12-10T15:16:17;39.33;;;24.30;;
12267;SDS011;6196;48.398;11.736;2022-12-10T15:18:47;39.27;;;24.97;;
12267;SDS011;6196;48.398;11.736;2022-12-10T15:21:18;43.47;;;24.77;;
12267;SDS011;6196;48.398;11.736;2022-12-10T15:23:49;49.10;;;29.57;;
12267;SDS011;6196;48.398;11.736;2022-12-10T15:28:49;40.50;;;24.23;;
12267;SDS011;6196;48.398;11.736;2022-12-10T15:34:05;38.13;;;25.50;;
12267;SDS011;6196;48.398;11.736;2022-12-10T15:36:41;39.10;;;25.90;;
12267;SDS011;6196;48.398;11.736;2022-12-10T15:41:58;42.40;;;27.53;;
12267;SDS011;6196;48.398;11.736;2022-12-10T15:49:46;42.67;;;27.97;;
12267;SDS011;6196;48.398;11.736;2022-12-10T15:52:19;40.93;;;28.20;;
12267;SDS011;6196;48.398;11.736;2022-12-10T15:54:56;42.50;;;27.00;;
12267;SDS011;6196;48.398;11.736;2022-12-10T15:57:25;41.63;;;26.67;;
12267;SDS011;6196;48.398;11.736;2022-12-10T15:59:54;42.17;;;28.27;;
12267;SDS011;6196;48.398;11.736;2022-12-10T16:02:35;42.23;;;28.07;;
12267;SDS011;6196;48.398;11.736;2022-12-10T16:05:11;35.33;;;23.90;;
12267;SDS011;6196;48.398;11.736;2022-12-10T16:07:58;42.07;;;26.00;;
12267;SDS011;6196;48.398;11.736;2022-12-10T16:10:40;42.53;;;26.27;;
12267;SDS011;6196;48.398;11.736;2022-12-10T16:13:13;46.30;;;28.20;;
12267;SDS011;6196;48.398;11.736;2022-12-10T16:16:08;55.40;;;31.57;;
12267;SDS011;6196;48.398;11.736;2022-12-10T16:18:38;38.93;;;24.33;;
12267;SDS011;6196;48.398;11.736;2022-12-10T16:21:06;37.13;;;23.43;;
12267;SDS011;6196;48.398;11.736;2022-12-10T16:23:36;37.37;;;23.03;;
12267;SDS011;6196;48.398;11.736;2022-12-10T16:26:09;35.03;;;22.40;;
12267;SDS011;6196;48.398;11.736;2022-12-10T16:28:44;36.77;;;22.57;;
12267;SDS011;6196;48.398;11.736;2022-12-10T16:31:14;36.70;;;20.97;;
12267;SDS011;6196;48.398;11.736;2022-12-10T16:33:44;33.33;;;21.80;;
12267;SDS011;6196;48.398;11.736;2022-12-10T16:36:13;35.90;;;22.33;;
12267;SDS011;6196;48.398;11.736;2022-12-10T16:38:40;33.63;;;22.67;;
12267;SDS011;6196;48.398;11.736;2022-12-10T16:41:17;37.57;;;23.00;;
12267;SDS011;6196;48.398;11.736;2022-12-10T16:43:47;35.43;;;23.20;;
12267;SDS011;6196;48.398;11.736;2022-12-10T16:46:14;34.70;;;21.87;;
12267;SDS011;6196;48.398;11.736;2022-12-10T16:48:42;36.53;;;22.63;;
12267;SDS011;6196;48.398;11.736;2022-12-10T16:51:12;36.90;;;23.70;;
12267;SDS011;6196;48.398;11.736;2022-12-10T16:53:58;36.93;;;22.77;;
12267;SDS011;6196;48.398;11.736;2022-12-10T16:56:25;37.47;;;23.43;;
12267;SDS011;6196;48.398;11.736;2022-12-10T16:58:52;36.83;;;23.10;;
12267;SDS011;6196;48.398;11.736;2022-12-10T17:01:19;36.00;;;23.87;;
12267;SDS011;6196;48.398;11.736;2022-12-10T17:03:50;36.13;;;22.57;;
12267;SDS011;6196;48.398;11.736;2022-12-10T17:06:18;34.10;;;21.97;;
12267;SDS011;6196;48.398;11.736;2022-12-10T17:08:45;36.73;;;24.07;;